createdAt,value
2023-01-08T00:05:12.727Z,91933.06
2023-01-08T00:15:19.069Z,91839.78
2023-01-08T00:25:25.376Z,91865.72
2023-01-08T00:35:31.710Z,91901.16
2023-01-08T00:45:38.077Z,91829.03
2023-01-08T00:55:44.420Z,91414.16
2023-01-08T01:05:51.209Z,91527.13
2023-01-08T01:16:01.715Z,91623.09
2023-01-08T01:26:08.152Z,91724.56
2023-01-08T01:36:16.081Z,91742.00
2023-01-08T01:46:46.514Z,91804.56
2023-01-08T01:56:52.831Z,91870.75
2023-01-08T02:07:09.786Z,91889.69
2023-01-08T02:17:26.083Z,91918.19
2023-01-08T02:27:33.262Z,91902.34
2023-01-08T02:37:40.084Z,91876.97
2023-01-08T02:47:58.999Z,91822.94
2023-01-08T02:58:05.961Z,91769.59
2023-01-08T03:08:13.149Z,91774.91
2023-01-08T03:18:27.331Z,91776.34
2023-01-08T03:28:43.397Z,91810.25
2023-01-08T03:39:10.919Z,91840.03
2023-01-08T03:49:17.349Z,91901.19
2023-01-08T03:59:25.840Z,91911.19
2023-01-08T04:09:32.363Z,91928.03
2023-01-08T04:19:38.659Z,91998.87
2023-01-08T04:29:45.028Z,91973.06
2023-01-08T04:39:51.340Z,91999.78
2023-01-08T04:49:57.726Z,91986.72
2023-01-08T05:00:04.547Z,92212.16
2023-01-08T05:10:11.565Z,92237.44
2023-01-08T05:20:19.055Z,92297.28
2023-01-08T05:30:25.473Z,92272.81
2023-01-08T05:40:31.733Z,92333.56
2023-01-08T05:50:38.157Z,92323.50
2023-01-08T06:00:44.468Z,92285.22
2023-01-08T06:10:50.792Z,92300.81
2023-01-08T06:20:57.334Z,92323.44
2023-01-08T06:31:04.615Z,92262.56
2023-01-08T06:41:11.977Z,92176.97
2023-01-08T06:51:18.334Z,92220.19
2023-01-08T07:01:24.832Z,92268.47
2023-01-08T07:11:31.210Z,92191.59
2023-01-08T07:21:37.524Z,92196.22
2023-01-08T07:31:43.932Z,92135.06
2023-01-08T07:41:50.319Z,91961.34
2023-01-08T07:51:56.631Z,91711.78
2023-01-08T08:02:03.200Z,91272.25
2023-01-08T08:12:10.114Z,90676.62
2023-01-08T08:22:17.004Z,90522.25
2023-01-08T08:32:23.321Z,90496.03
2023-01-08T08:42:29.576Z,90640.19
2023-01-08T08:52:35.897Z,90642.31
2023-01-08T09:02:42.392Z,90670.28
2023-01-08T09:12:48.831Z,90677.47
2023-01-08T09:22:55.536Z,90488.06
2023-01-08T09:33:03.396Z,90324.62
2023-01-08T09:43:17.478Z,90335.44
2023-01-08T09:53:23.905Z,90445.16
2023-01-08T10:03:42.923Z,90187.88
2023-01-08T10:13:55.174Z,90203.53
2023-01-08T10:24:01.480Z,90273.25
2023-01-08T10:34:12.477Z,90395.72
2023-01-08T10:44:19.940Z,90560.69
2023-01-08T10:54:42.280Z,90519.56
2023-01-08T11:04:52.493Z,90477.94
2023-01-08T11:14:58.889Z,90408.53
2023-01-08T11:25:09.936Z,90399.16
2023-01-08T11:35:31.136Z,90074.78
2023-01-08T11:45:40.344Z,89951.69
2023-01-08T11:56:26.681Z,89904.13
2023-01-08T12:06:42.961Z,90333.47
2023-01-08T12:17:26.862Z,90853.97
2023-01-08T12:27:57.625Z,91000.03
2023-01-08T12:38:27.043Z,90831.25
2023-01-08T12:48:36.036Z,90804.00
2023-01-08T12:58:58.987Z,91143.28
2023-01-08T13:09:05.293Z,91467.62
2023-01-08T13:19:29.311Z,92036.44
2023-01-08T13:29:41.562Z,92582.88
2023-01-08T13:39:47.930Z,92797.47
2023-01-08T13:49:55.136Z,92935.53
2023-01-08T14:00:01.490Z,93065.37
2023-01-08T14:10:14.491Z,93125.28
2023-01-08T14:20:33.966Z,93089.75
2023-01-08T14:30:51.270Z,93131.00
2023-01-08T14:41:14.854Z,93123.00
2023-01-08T14:51:27.408Z,92960.34
2023-01-08T15:01:35.266Z,92836.87
2023-01-08T15:12:00.498Z,92498.44
2023-01-08T15:22:06.987Z,92407.94
2023-01-08T15:32:13.669Z,92236.25
2023-01-08T15:42:48.616Z,92075.53
2023-01-08T15:52:57.652Z,91830.34
2023-01-08T16:03:05.489Z,91638.38
2023-01-08T16:13:12.379Z,91303.84
2023-01-08T16:23:18.733Z,91020.28
2023-01-08T16:33:25.195Z,90732.13
2023-01-08T16:43:32.325Z,90513.66
2023-01-08T16:53:38.960Z,90244.31
2023-01-08T17:03:45.420Z,90003.69
2023-01-08T17:13:52.012Z,89739.00
2023-01-08T17:23:58.326Z,89631.34
2023-01-08T17:34:04.793Z,89600.69
2023-01-08T17:44:13.471Z,89646.97
2023-01-08T17:54:21.043Z,89606.34
2023-01-08T18:04:27.445Z,89562.00
2023-01-08T18:14:36.315Z,89451.75
2023-01-08T18:24:42.947Z,89344.00
2023-01-08T18:34:49.845Z,89329.38
2023-01-08T18:44:57.197Z,89261.47
2023-01-08T18:55:03.855Z,89291.47
2023-01-08T19:05:11.005Z,89346.03
2023-01-08T19:15:18.034Z,89300.44
2023-01-08T19:25:24.374Z,89333.19
2023-01-08T19:35:31.153Z,89357.50
2023-01-08T19:45:38.606Z,89360.03
2023-01-08T19:55:46.503Z,89289.12
2023-01-08T20:05:53.729Z,89231.78
2023-01-08T20:16:00.103Z,89236.63
2023-01-08T20:26:09.372Z,89204.88
2023-01-08T20:36:22.047Z,89121.34
2023-01-08T20:46:30.074Z,89176.69
2023-01-08T20:56:36.396Z,89180.28
2023-01-08T21:06:42.905Z,89200.28
2023-01-08T21:16:49.299Z,89164.69
2023-01-08T21:26:55.669Z,89577.72
2023-01-08T21:37:03.704Z,89524.28
2023-01-08T21:47:19.275Z,89528.41
2023-01-08T21:57:28.797Z,89504.84
2023-01-08T22:07:35.259Z,89511.00
2023-01-08T22:17:41.550Z,89552.16
2023-01-08T22:27:47.850Z,89550.34
2023-01-08T22:37:54.171Z,89727.44
2023-01-08T22:48:00.554Z,89776.81
2023-01-08T22:58:06.857Z,89761.06
2023-01-08T23:08:13.187Z,89829.75
2023-01-08T23:18:19.730Z,89890.47
2023-01-08T23:28:26.060Z,89938.16
2023-01-08T23:38:33.098Z,90035.62
2023-01-08T23:48:39.371Z,90130.69
2023-01-08T23:58:46.479Z,90167.38
